Weather at Three Rivers Airstrip

Public forecast

Using degrees Celsius for public forecast. Weather courtesy of forecast.io.

Closest aviation weather report (METAR) to Three Rivers Airstrip

Closest report is Meekatharra Airport, 94.9 nm (175.8 km) SSW. Retrieved 2022/07/01 01:14 UTC (7 minutes ago):

YMEK 010114Z AUTO 07015G25KT 9999 // NCD 12/04 Q1029

Closest aviation forecast (TAF) to Three Rivers Airstrip

Forecast is more than 12 hours old.

Closest forecast is Telfer Airport, 265.9 nm (492.5 km) NE. Retrieved 2017/06/24 02:03 UTC (5 years ago):

TAF TAF YTEF 240051Z 2402/2414 12005KT CAVOK FM240500 33005KT 9999 -SHRA SCT060 BKN100